Time;durP1;ratioP1;P1;durP2;ratioP2;P2;SDS_P1;SDS_P2;PMS_P1;PMS_P2;Temp;Humidity;BMP_temperature;BMP_pressure;BME280_temperature;BME280_humidity;BME280_pressure;Samples;Min_cycle;Max_cycle;Signal;HPM_P1;HPM_P2
2022/02/09 00:03:51;;;;;;;16.10;11.70;;;8.30;99.90;;;;;;5046450;28;20186;-70
2022/02/09 00:06:37;;;;;;;16.17;11.60;;;8.30;99.90;;;;;;5046154;28;20213;-72
2022/02/09 00:09:04;;;;;;;15.37;11.77;;;8.30;99.90;;;;;;5046938;28;20209;-71
2022/02/09 00:11:37;;;;;;;14.23;10.90;;;8.30;99.90;;;;;;5047618;28;20595;-72
2022/02/09 00:14:13;;;;;;;14.00;11.37;;;8.40;99.90;;;;;;5047314;28;20609;-73
2022/02/09 00:19:31;;;;;;;13.07;10.33;;;8.40;99.90;;;;;;5048496;28;20192;-73
2022/02/09 00:22:15;;;;;;;14.07;10.90;;;8.40;99.90;;;;;;5046833;28;20181;-70
2022/02/09 00:30:00;;;;;;;13.23;9.77;;;8.40;99.90;;;;;;5048569;28;20189;-70
2022/02/09 01:55:25;;;;;;;4.50;3.70;;;8.50;99.90;;;;;;5046577;28;20664;-70
2022/02/09 01:56:50;;;;;;;4.20;3.80;;;8.40;99.90;;;;;;5046909;28;20185;-71
2022/02/09 01:59:15;;;;;;;5.03;3.73;;;8.40;99.90;;;;;;5045077;28;20178;-70
2022/02/09 02:01:41;;;;;;;3.97;3.23;;;8.40;99.90;;;;;;5046732;28;20179;-73
2022/02/09 02:04:07;;;;;;;4.57;3.20;;;8.40;99.90;;;;;;5045769;28;20620;-73
2022/02/09 02:06:34;;;;;;;5.10;3.40;;;8.40;99.90;;;;;;5046202;28;20186;-73
2022/02/09 02:09:00;;;;;;;4.07;3.50;;;8.40;99.90;;;;;;5046717;28;20186;-71
2022/02/09 02:12:12;;;;;;;3.77;3.40;;;8.40;99.90;;;;;;5046571;28;20625;-71
2022/02/09 02:14:37;;;;;;;4.87;3.70;;;8.40;99.90;;;;;;5047093;28;20388;-73
2022/02/09 02:19:37;;;;;;;4.87;4.07;;;8.40;99.90;;;;;;5046711;28;20224;-73
2022/02/09 02:27:36;;;;;;;3.50;3.20;;;8.50;99.90;;;;;;5048471;28;20331;-73
2022/02/09 02:35:38;;;;;;;5.30;3.70;;;8.40;99.90;;;;;;5047381;28;20228;-72
2022/02/09 02:41:15;;;;;;;5.90;3.80;;;8.40;99.90;;;;;;5048890;28;20182;-72
2022/02/09 03:08:20;;;;;;;4.27;3.50;;;8.50;99.90;;;;;;5048990;28;20204;-73
2022/02/09 03:15:32;;;;;;;5.03;3.50;;;8.40;99.90;;;;;;5049479;28;20324;-72
2022/02/09 03:20:45;;;;;;;4.87;3.70;;;8.40;99.90;;;;;;5049661;28;20173;-71
2022/02/09 03:27:18;;;;;;;4.37;3.23;;;8.40;99.90;;;;;;5049352;28;20177;-71
2022/02/09 03:55:37;;;;;;;4.03;3.23;;;8.20;99.90;;;;;;5048989;28;20209;-71
2022/02/09 03:58:05;;;;;;;4.10;3.13;;;8.30;99.90;;;;;;5047393;28;20182;-73
2022/02/09 04:00:35;;;;;;;4.40;2.97;;;8.30;99.90;;;;;;5048198;28;20252;-73
2022/02/09 04:03:02;;;;;;;3.10;2.80;;;8.30;99.90;;;;;;5047369;28;20186;-72
2022/02/09 04:05:28;;;;;;;3.93;2.70;;;8.30;99.90;;;;;;5047423;28;20213;-72
2022/02/09 04:07:56;;;;;;;3.07;2.77;;;8.40;99.90;;;;;;5049333;28;20583;-72
2022/02/09 04:10:28;;;;;;;2.97;2.50;;;8.30;99.90;;;;;;5046545;28;20231;-71
2022/02/09 04:15:48;;;;;;;4.50;2.73;;;8.30;99.90;;;;;;5048408;28;20544;-73
2022/02/09 04:37:33;;;;;;;3.97;2.40;;;8.10;99.90;;;;;;5045917;28;20254;-76
2022/02/09 04:40:04;;;;;;;2.60;2.00;;;8.20;99.90;;;;;;5043616;28;20724;-71
2022/02/09 04:47:52;;;;;;;2.00;1.80;;;8.20;99.90;;;;;;5044563;28;20170;-72
2022/02/09 04:58:00;;;;;;;2.50;2.17;;;8.20;99.90;;;;;;5044617;28;20197;-71
2022/02/09 05:00:40;;;;;;;1.93;1.70;;;8.20;99.90;;;;;;5043879;28;20261;-71
2022/02/09 05:26:48;;;;;;;1.57;1.40;;;8.30;99.90;;;;;;5044410;28;20662;-71
2022/02/09 05:29:14;;;;;;;1.50;1.40;;;8.30;99.90;;;;;;5043754;28;20171;-71
2022/02/09 05:31:40;;;;;;;2.47;1.33;;;8.30;99.90;;;;;;5044102;28;20187;-72
2022/02/09 05:34:07;;;;;;;1.70;1.50;;;8.30;99.90;;;;;;5042590;28;20225;-73
2022/02/09 05:36:32;;;;;;;1.73;1.63;;;8.30;99.90;;;;;;5044630;28;20181;-71
2022/02/09 05:38:58;;;;;;;1.73;1.30;;;8.20;99.90;;;;;;5041747;28;20175;-74
2022/02/09 05:41:24;;;;;;;1.83;1.63;;;8.20;99.90;;;;;;5044699;28;20269;-72
2022/02/09 05:43:50;;;;;;;3.23;1.90;;;8.20;99.90;;;;;;5044242;28;20225;-72
2022/02/09 05:54:20;;;;;;;1.80;1.70;;;8.20;99.90;;;;;;5060392;28;20214;-73
2022/02/09 05:57:11;;;;;;;2.37;1.70;;;8.20;99.90;;;;;;5046362;28;20185;-71
2022/02/09 05:59:34;;;;;;;2.53;1.60;;;8.20;99.90;;;;;;5046244;28;20628;-72
2022/02/09 06:02:00;;;;;;;2.13;1.70;;;8.30;99.90;;;;;;5046807;28;20771;-73
2022/02/09 06:04:26;;;;;;;2.70;2.00;;;8.30;99.90;;;;;;5046267;28;20206;-72
2022/02/09 06:06:52;;;;;;;1.93;1.70;;;8.30;99.90;;;;;;5046656;28;20194;-72
2022/02/09 06:09:18;;;;;;;2.00;1.80;;;8.20;99.90;;;;;;5046799;28;20194;-73
2022/02/09 06:12:12;;;;;;;2.07;1.80;;;8.30;99.90;;;;;;5046535;28;20182;-73
2022/02/09 06:20:07;;;;;;;2.77;1.90;;;8.20;99.90;;;;;;5046081;28;20638;-71
2022/02/09 06:22:32;;;;;;;2.90;2.00;;;8.20;99.90;;;;;;5045375;28;20919;-71
2022/02/09 06:24:58;;;;;;;2.67;2.20;;;8.10;99.90;;;;;;5045963;28;20236;-74
2022/02/09 06:27:24;;;;;;;2.10;1.90;;;8.10;99.90;;;;;;5046489;28;20544;-72
2022/02/09 06:29:50;;;;;;;2.37;2.17;;;8.10;99.90;;;;;;5046504;28;20312;-72
2022/02/09 06:32:17;;;;;;;2.10;1.90;;;8.10;99.90;;;;;;5046183;28;20205;-72
2022/02/09 06:34:44;;;;;;;2.27;1.87;;;8.10;99.90;;;;;;5045152;28;20220;-73
2022/02/09 06:37:18;;;;;;;3.43;2.07;;;8.10;99.90;;;;;;5046337;28;20186;-73
2022/02/09 06:39:46;;;;;;;2.33;2.13;;;8.10;99.90;;;;;;5044478;28;20241;-73
2022/02/09 06:42:20;;;;;;;2.10;2.00;;;8.20;99.90;;;;;;5044705;28;20664;-72
2022/02/09 06:44:46;;;;;;;2.20;2.00;;;8.10;99.90;;;;;;5044566;28;20206;-71
2022/02/09 06:47:12;;;;;;;2.77;2.30;;;8.10;99.90;;;;;;5046128;28;20388;-73
2022/02/09 06:49:39;;;;;;;2.70;2.00;;;8.10;99.90;;;;;;5046529;28;20186;-72
2022/02/09 06:52:05;;;;;;;2.40;2.20;;;8.10;99.90;;;;;;5046655;28;20178;-72
2022/02/09 06:54:33;;;;;;;2.40;2.03;;;8.10;99.90;;;;;;5046020;28;20222;-72
2022/02/09 06:57:05;;;;;;;2.60;2.40;;;8.00;99.90;;;;;;5046172;28;20269;-71
2022/02/09 06:59:31;;;;;;;2.50;2.30;;;8.10;99.90;;;;;;5045461;28;20175;-72
2022/02/09 07:02:04;;;;;;;2.77;2.57;;;8.20;99.90;;;;;;5045276;28;20678;-72
2022/02/09 07:04:31;;;;;;;2.40;2.20;;;8.10;99.90;;;;;;5044990;28;20198;-72
2022/02/09 07:06:57;;;;;;;2.60;2.40;;;8.20;99.90;;;;;;5044807;28;20182;-72
2022/02/09 07:09:23;;;;;;;2.60;2.30;;;8.20;99.90;;;;;;5044949;28;20338;-73
2022/02/09 07:11:50;;;;;;;2.67;1.97;;;8.20;99.90;;;;;;5045162;28;20205;-71
2022/02/09 07:14:21;;;;;;;2.43;2.20;;;8.10;99.90;;;;;;5044233;28;20217;-71
2022/02/09 07:16:47;;;;;;;4.23;2.40;;;8.20;99.90;;;;;;5044437;28;20663;-72
2022/02/09 07:19:12;;;;;;;2.23;2.03;;;8.20;99.90;;;;;;5043606;28;20178;-71
2022/02/09 07:21:40;;;;;;;3.90;2.20;;;8.10;99.90;;;;;;5045391;28;20179;-71
2022/02/09 07:24:11;;;;;;;2.30;2.10;;;8.10;99.90;;;;;;5044237;28;20301;-72
2022/02/09 07:29:15;;;;;;;3.60;2.20;;;8.00;99.90;;;;;;5043332;28;20186;-72
2022/02/09 07:31:41;;;;;;;1.90;1.77;;;8.00;99.90;;;;;;5043271;28;20281;-71
2022/02/09 07:34:06;;;;;;;2.10;1.77;;;8.10;99.90;;;;;;5043376;28;20218;-71
2022/02/09 07:36:35;;;;;;;1.60;1.50;;;8.10;99.90;;;;;;5038545;28;20414;-72
2022/02/09 07:39:06;;;;;;;1.67;1.50;;;8.10;99.90;;;;;;5042209;28;20174;-70
2022/02/09 07:41:35;;;;;;;1.40;1.30;;;8.10;99.90;;;;;;5048913;28;20650;-72
2022/02/09 07:52:11;;;;;;;1.53;1.40;;;8.10;99.90;;;;;;5050282;28;20224;-70
2022/02/09 07:54:44;;;;;;;2.60;1.30;;;8.20;99.90;;;;;;5050351;28;20259;-73
2022/02/09 07:57:09;;;;;;;2.73;1.23;;;8.20;99.90;;;;;;5048229;28;20182;-73
2022/02/09 07:59:35;;;;;;;1.90;1.13;;;8.20;99.90;;;;;;5052368;28;20548;-73
2022/02/09 08:02:01;;;;;;;1.60;1.33;;;8.20;99.90;;;;;;5049317;28;20197;-71
2022/02/09 08:04:26;;;;;;;1.53;1.40;;;8.20;99.90;;;;;;5041385;28;20213;-70
2022/02/09 08:06:52;;;;;;;1.43;1.33;;;8.30;99.90;;;;;;5042909;28;20185;-71
2022/02/09 08:09:28;;;;;;;1.37;1.27;;;8.30;99.90;;;;;;5042694;28;20225;-73
2022/02/09 08:26:10;;;;;;;2.30;1.70;;;8.30;99.90;;;;;;5042030;28;20201;-72
2022/02/09 08:31:00;;;;;;;1.23;1.13;;;8.40;99.90;;;;;;5042173;28;20197;-76
2022/02/09 08:33:26;;;;;;;1.40;1.30;;;8.50;99.90;;;;;;5042774;28;20677;-73
2022/02/09 08:35:54;;;;;;;1.27;1.10;;;8.50;99.90;;;;;;5042511;28;20288;-73
2022/02/09 08:38:19;;;;;;;1.43;1.20;;;8.60;99.90;;;;;;5042753;28;20182;-72
2022/02/09 08:40:46;;;;;;;1.83;1.30;;;8.60;99.90;;;;;;5042987;28;20248;-71
2022/02/09 08:43:13;;;;;;;1.60;1.30;;;8.80;99.90;;;;;;5043958;28;20178;-72
2022/02/09 08:45:40;;;;;;;2.40;1.50;;;8.80;99.90;;;;;;5040872;28;20202;-75
2022/02/09 08:48:06;;;;;;;4.13;1.10;;;8.80;99.90;;;;;;5040795;28;20190;-72
2022/02/09 08:50:32;;;;;;;1.80;1.10;;;8.80;99.90;;;;;;5042244;28;20184;-73
2022/02/09 08:52:58;;;;;;;1.40;1.30;;;8.80;99.90;;;;;;5042468;28;20182;-72
2022/02/09 08:55:24;;;;;;;1.20;1.10;;;8.80;99.90;;;;;;5039892;28;20218;-72
2022/02/09 08:57:50;;;;;;;1.40;1.30;;;8.80;99.90;;;;;;5043658;28;20182;-71
2022/02/09 09:00:30;;;;;;;1.27;1.00;;;8.70;99.90;;;;;;5043809;28;20192;-71
2022/02/09 09:05:42;;;;;;;1.73;1.30;;;8.60;99.90;;;;;;5041520;28;20205;-71
2022/02/09 09:08:37;;;;;;;1.53;1.10;;;8.70;99.90;;;;;;5035527;28;20186;-71
2022/02/09 09:25:07;;;;;;;2.80;1.73;;;9.00;99.90;;;;;;5044436;28;20185;-74
2022/02/09 10:02:43;;;;;;;0.70;0.70;;;9.50;99.90;;;;;;5044292;28;20200;-72
2022/02/09 10:31:35;;;;;;;0.80;0.60;;;9.90;99.90;;;;;;5043727;28;20263;-72
2022/02/09 10:34:02;;;;;;;1.00;0.70;;;10.00;99.90;;;;;;5043702;28;20217;-72
2022/02/09 10:36:29;;;;;;;0.70;0.70;;;10.00;99.90;;;;;;5047315;28;20182;-71
2022/02/09 10:39:33;;;;;;;0.70;0.70;;;10.00;99.90;;;;;;5046500;28;20185;-71
2022/02/09 10:42:13;;;;;;;0.93;0.90;;;9.90;99.90;;;;;;5048624;28;20174;-71
2022/02/09 10:45:02;;;;;;;1.00;0.70;;;9.90;99.90;;;;;;5048735;28;20206;-72
2022/02/09 10:47:31;;;;;;;0.70;0.70;;;9.90;99.90;;;;;;5048201;28;20212;-72
2022/02/09 10:50:27;;;;;;;0.73;0.73;;;9.70;99.90;;;;;;5049617;28;20441;-72
2022/02/09 10:52:55;;;;;;;0.80;0.73;;;9.60;99.90;;;;;;5047173;28;20517;-72
2022/02/09 10:55:31;;;;;;;0.80;0.80;;;9.50;99.90;;;;;;5045793;28;20760;-72
2022/02/09 10:57:57;;;;;;;0.83;0.83;;;9.40;99.90;;;;;;5045305;28;20383;-72
2022/02/09 11:00:25;;;;;;;0.80;0.60;;;9.40;99.90;;;;;;5047671;28;20265;-71
2022/02/09 11:02:51;;;;;;;0.80;0.80;;;9.50;99.90;;;;;;5047721;28;20174;-71
2022/02/09 11:05:19;;;;;;;1.57;0.73;;;9.50;99.90;;;;;;5046607;28;20226;-73
2022/02/09 11:07:50;;;;;;;1.60;0.80;;;9.60;99.90;;;;;;5045972;28;20240;-75
2022/02/09 11:10:16;;;;;;;0.80;0.80;;;9.60;99.90;;;;;;5048577;28;20547;-72
2022/02/09 11:12:42;;;;;;;0.60;0.53;;;9.60;99.90;;;;;;5049252;28;20193;-72
2022/02/09 11:15:17;;;;;;;0.67;0.67;;;9.60;99.90;;;;;;5047723;28;20194;-71
2022/02/09 11:17:47;;;;;;;1.93;1.13;;;9.60;99.90;;;;;;5050368;28;20182;-72
2022/02/09 11:20:19;;;;;;;0.97;0.87;;;9.60;99.90;;;;;;5051510;28;20662;-72
2022/02/09 11:22:47;;;;;;;0.93;0.90;;;9.60;99.90;;;;;;5050892;28;20183;-72
2022/02/09 11:25:18;;;;;;;1.40;1.00;;;9.50;99.90;;;;;;5051590;28;20217;-71
2022/02/09 11:27:55;;;;;;;1.07;0.90;;;9.50;99.90;;;;;;5049028;28;20269;-72
2022/02/09 11:33:00;;;;;;;1.40;1.00;;;9.60;99.90;;;;;;5036222;28;20182;-72
2022/02/09 11:38:52;;;;;;;0.70;0.70;;;9.80;99.90;;;;;;5041203;28;20190;-72
2022/02/09 11:41:32;;;;;;;0.80;0.80;;;9.90;99.90;;;;;;5045238;28;20240;-72
2022/02/09 11:44:18;;;;;;;0.98;0.80;;;9.90;99.90;;;;;;5045327;28;20224;-70
2022/02/09 11:47:12;;;;;;;0.80;0.80;;;10.00;99.90;;;;;;5045766;28;20178;-72
2022/02/09 11:50:02;;;;;;;1.40;0.93;;;10.10;99.90;;;;;;5048005;28;20236;-70
2022/02/09 12:09:49;;;;;;;1.63;0.80;;;10.00;99.90;;;;;;4988247;28;20226;-77
2022/02/09 12:12:21;;;;;;;1.63;0.93;;;9.90;99.90;;;;;;5009753;28;20510;-78
2022/02/09 12:15:29;;;;;;;3.17;0.90;;;9.80;99.90;;;;;;4993389;28;20756;-79
2022/02/09 12:18:15;;;;;;;2.73;1.20;;;9.90;99.90;;;;;;4986891;28;20824;-78
2022/02/09 12:20:47;;;;;;;2.27;0.80;;;10.00;99.90;;;;;;4986740;28;20382;-80
2022/02/09 12:23:28;;;;;;;0.90;0.90;;;9.90;99.90;;;;;;4985526;28;20191;-76
2022/02/09 12:25:54;;;;;;;0.80;0.80;;;9.80;99.90;;;;;;4987078;28;20195;-79
2022/02/09 12:28:25;;;;;;;1.33;0.90;;;9.90;99.90;;;;;;5009980;28;20606;-81
2022/02/09 12:31:04;;;;;;;1.20;1.10;;;9.90;99.90;;;;;;4991369;28;20234;-80
2022/02/09 12:33:29;;;;;;;1.47;1.10;;;10.00;99.90;;;;;;4988271;28;20197;-77
2022/02/09 12:36:11;;;;;;;2.53;1.20;;;10.10;99.90;;;;;;4994714;28;20216;-81
2022/02/09 12:38:37;;;;;;;1.80;1.27;;;10.00;99.90;;;;;;4996069;28;20685;-80
2022/02/09 12:41:21;;;;;;;1.40;1.10;;;10.10;99.90;;;;;;4997836;28;20176;-77
2022/02/09 12:44:01;;;;;;;1.73;1.20;;;10.10;99.90;;;;;;4998957;28;20258;-80
2022/02/09 12:46:33;;;;;;;3.33;2.30;;;10.10;99.90;;;;;;4996231;28;20180;-80
2022/02/09 12:49:05;;;;;;;1.90;1.40;;;10.10;99.90;;;;;;5013341;28;20757;-79
2022/02/09 12:51:31;;;;;;;1.80;1.70;;;10.20;99.90;;;;;;4998182;28;20191;-80
2022/02/09 12:53:58;;;;;;;1.50;1.40;;;10.20;99.90;;;;;;4996755;28;20184;-78
2022/02/09 12:56:27;;;;;;;1.97;1.40;;;10.10;99.90;;;;;;5012313;28;20565;-77
2022/02/09 12:59:01;;;;;;;2.30;1.40;;;10.10;99.90;;;;;;4994268;28;20206;-80
2022/02/09 13:01:37;;;;;;;1.63;1.17;;;10.10;99.90;;;;;;5000189;28;20717;-80
2022/02/09 13:04:03;;;;;;;1.52;1.42;;;10.10;99.90;;;;;;5013282;28;20287;-79
2022/02/09 13:06:28;;;;;;;2.13;1.33;;;10.00;99.90;;;;;;5010896;28;20298;-79
2022/02/09 13:08:54;;;;;;;1.23;1.13;;;10.00;99.90;;;;;;4995434;28;20219;-76
2022/02/09 13:11:27;;;;;;;1.40;1.30;;;9.90;99.90;;;;;;4998736;28;20670;-76
2022/02/09 13:14:02;;;;;;;1.90;1.40;;;9.90;99.90;;;;;;4999108;28;20191;-79
2022/02/09 13:16:43;;;;;;;1.50;1.40;;;10.00;99.90;;;;;;4994770;28;20210;-80
2022/02/09 14:33:48;;;;;;;2.20;2.00;;;9.30;99.90;;;;;;4996785;28;20214;-79
2022/02/09 14:49:55;;;;;;;4.07;2.77;;;9.40;99.90;;;;;;4986381;28;20243;-82
2022/02/09 14:52:01;;;;;;;3.37;2.60;;;9.40;99.90;;;;;;4988570;28;20732;-78
2022/02/09 14:57:13;;;;;;;2.40;2.20;;;9.40;99.90;;;;;;4992591;28;20190;-81
2022/02/09 15:02:08;;;;;;;3.13;2.80;;;9.50;99.90;;;;;;4991033;28;20184;-83
2022/02/09 15:08:09;;;;;;;3.30;2.40;;;9.60;99.90;;;;;;4985508;28;20372;-83
2022/02/09 15:10:19;;;;;;;2.27;2.07;;;9.60;99.90;;;;;;4991214;28;20195;-80
2022/02/09 15:13:46;;;;;;;2.97;2.17;;;9.60;99.90;;;;;;4987464;28;21100;-73
2022/02/09 15:15:57;;;;;;;2.50;2.30;;;9.70;99.90;;;;;;4978704;28;20262;-80
2022/02/09 15:23:41;;;;;;;2.80;2.37;;;9.60;99.90;;;;;;4985750;28;20554;-76
2022/02/09 15:26:07;;;;;;;3.40;2.53;;;9.60;99.90;;;;;;4994033;28;20199;-79
2022/02/09 15:28:35;;;;;;;2.77;2.27;;;9.50;99.90;;;;;;4990707;28;20378;-78
2022/02/09 15:34:03;;;;;;;2.20;1.70;;;9.60;99.90;;;;;;4994096;28;20271;-81
2022/02/09 15:39:22;;;;;;;3.20;2.03;;;9.60;99.90;;;;;;4991088;28;20521;-82
2022/02/09 16:17:29;;;;;;;1.70;1.60;;;9.10;99.90;;;;;;4995383;28;20226;-79
2022/02/09 16:20:11;;;;;;;2.13;1.53;;;9.10;99.90;;;;;;4995175;28;20222;-77
2022/02/09 16:23:34;;;;;;;1.70;1.60;;;9.10;99.90;;;;;;4993220;28;20631;-79
2022/02/09 16:36:48;;;;;;;1.73;1.60;;;9.00;99.90;;;;;;4996040;28;21240;-79
2022/02/09 16:46:53;;;;;;;1.63;1.53;;;9.00;99.90;;;;;;4994739;28;20175;-75
2022/02/09 16:52:19;;;;;;;2.43;2.00;;;9.00;99.90;;;;;;4988300;28;20184;-82
2022/02/09 16:55:09;;;;;;;1.93;1.60;;;8.90;99.90;;;;;;4997228;28;20214;-77
2022/02/09 17:15:33;;;;;;;2.47;2.00;;;8.90;99.90;;;;;;5015137;28;20254;-82
2022/02/09 17:19:22;;;;;;;1.97;1.87;;;8.80;99.90;;;;;;4997341;28;20337;-79
2022/02/09 17:21:47;;;;;;;2.93;2.20;;;8.70;99.90;;;;;;4995060;28;20816;-80
2022/02/09 17:24:13;;;;;;;2.40;2.20;;;8.70;99.90;;;;;;4997162;28;20198;-78
2022/02/09 17:26:39;;;;;;;2.30;2.00;;;8.80;99.90;;;;;;5015095;28;20669;-79
2022/02/09 17:29:05;;;;;;;2.50;2.30;;;8.80;99.90;;;;;;4994162;28;20205;-79
2022/02/09 17:53:28;;;;;;;2.27;2.10;;;8.60;99.90;;;;;;5001178;28;20605;-78
2022/02/09 17:56:14;;;;;;;3.33;2.70;;;8.60;99.90;;;;;;5000615;28;20654;-77
2022/02/09 17:58:46;;;;;;;2.53;2.33;;;8.60;99.90;;;;;;4996901;28;20690;-78
2022/02/09 18:01:12;;;;;;;2.97;2.27;;;8.60;99.90;;;;;;5016731;28;20257;-78
2022/02/09 18:03:38;;;;;;;2.30;2.03;;;8.70;99.90;;;;;;4998593;28;20180;-80
2022/02/09 18:11:23;;;;;;;4.13;2.50;;;8.60;99.90;;;;;;4997068;28;20196;-77
2022/02/09 18:28:33;;;;;;;2.17;1.97;;;8.60;99.90;;;;;;4999099;28;20186;-79
2022/02/09 18:30:11;;;;;;;2.97;2.13;;;8.60;99.90;;;;;;4988574;28;20575;-79
2022/02/09 18:33:05;;;;;;;2.30;2.10;;;8.50;99.90;;;;;;4996957;28;20283;-77
2022/02/09 18:41:37;;;;;;;4.10;2.67;;;8.50;99.90;;;;;;4996476;28;20180;-76
2022/02/09 18:43:27;;;;;;;2.37;2.17;;;8.60;99.90;;;;;;4994212;28;20199;-77
2022/02/09 18:46:05;;;;;;;2.37;2.17;;;8.60;99.90;;;;;;4995715;28;20327;-79
2022/02/09 18:49:01;;;;;;;2.60;2.20;;;8.60;99.90;;;;;;5012646;28;20788;-79
2022/02/09 18:57:40;;;;;;;1.97;1.87;;;8.40;99.90;;;;;;4999132;28;20222;-78
2022/02/09 19:00:27;;;;;;;3.00;2.50;;;8.40;99.90;;;;;;5001387;28;20761;-76
2022/02/09 19:05:42;;;;;;;2.57;1.87;;;8.40;99.90;;;;;;4999055;28;20193;-78
2022/02/09 19:29:43;;;;;;;3.10;2.80;;;8.50;99.90;;;;;;5000207;28;20211;-81
2022/02/09 19:32:58;;;;;;;2.60;2.40;;;8.50;99.90;;;;;;4995562;28;20183;-78
2022/02/09 19:48:16;;;;;;;3.67;3.37;;;8.50;99.90;;;;;;4997985;28;20258;-80
2022/02/09 19:50:54;;;;;;;3.87;3.07;;;8.50;99.90;;;;;;5000452;28;20667;-77
2022/02/09 19:56:17;;;;;;;3.97;3.37;;;8.40;99.90;;;;;;4995953;28;20290;-77
2022/02/09 19:58:51;;;;;;;4.90;3.23;;;8.40;99.90;;;;;;4996131;28;20206;-78
2022/02/09 20:01:19;;;;;;;4.73;2.90;;;8.50;99.90;;;;;;4994037;28;20198;-80
2022/02/09 20:03:45;;;;;;;3.30;3.00;;;8.50;99.90;;;;;;5013615;28;20180;-78
2022/02/09 20:06:11;;;;;;;3.17;2.90;;;8.40;99.90;;;;;;5014545;28;20191;-79
2022/02/09 20:08:38;;;;;;;3.17;2.63;;;8.40;99.90;;;;;;4995375;28;20204;-80
2022/02/09 20:11:09;;;;;;;3.00;2.70;;;8.40;99.90;;;;;;5014942;28;20250;-78
2022/02/09 20:13:36;;;;;;;3.80;3.07;;;8.40;99.90;;;;;;4995111;28;20180;-82
2022/02/09 20:16:02;;;;;;;3.10;2.80;;;8.40;99.90;;;;;;5011098;28;20560;-78
2022/02/09 20:18:31;;;;;;;4.13;2.90;;;8.50;99.90;;;;;;5000124;28;20219;-78
2022/02/09 20:20:57;;;;;;;4.00;3.30;;;8.50;99.90;;;;;;5001513;28;20176;-77
2022/02/09 20:23:23;;;;;;;3.30;3.00;;;8.50;99.90;;;;;;5000216;28;20672;-77
2022/02/09 20:25:49;;;;;;;4.13;3.70;;;8.40;99.90;;;;;;5013970;28;20191;-78
2022/02/09 20:28:15;;;;;;;4.20;3.37;;;8.50;99.90;;;;;;5016108;28;20199;-79
2022/02/09 20:30:46;;;;;;;3.73;3.33;;;8.50;99.90;;;;;;5015401;28;20240;-80
2022/02/09 20:33:16;;;;;;;4.57;3.63;;;8.50;99.90;;;;;;5016713;28;20183;-76
2022/02/09 20:35:42;;;;;;;3.83;3.43;;;8.50;99.90;;;;;;4999995;28;20207;-80
2022/02/09 20:38:15;;;;;;;3.70;3.40;;;8.50;99.90;;;;;;4998185;28;20204;-78
2022/02/09 20:40:53;;;;;;;3.43;3.13;;;8.50;99.90;;;;;;5014580;28;20187;-80
2022/02/09 20:43:22;;;;;;;3.50;3.20;;;8.50;99.90;;;;;;5001855;28;20186;-79
2022/02/09 20:45:53;;;;;;;3.60;3.30;;;8.40;99.90;;;;;;4997833;28;20176;-80
2022/02/09 20:48:27;;;;;;;12.47;8.83;;;8.50;99.90;;;;;;4996017;28;20252;-79
2022/02/09 20:50:58;;;;;;;3.70;3.13;;;8.40;99.90;;;;;;5012401;28;20180;-78
2022/02/09 20:53:24;;;;;;;3.70;3.30;;;8.50;99.90;;;;;;4998110;28;20179;-77
2022/02/09 20:55:50;;;;;;;3.40;3.10;;;8.50;99.90;;;;;;5000255;28;20253;-77
2022/02/09 20:58:19;;;;;;;4.70;3.20;;;8.40;99.90;;;;;;5011354;28;20203;-76
2022/02/09 21:00:59;;;;;;;4.43;3.40;;;8.50;99.90;;;;;;4998038;28;20200;-78
2022/02/09 21:06:11;;;;;;;5.27;3.40;;;8.40;99.90;;;;;;4995652;28;20182;-78
2022/02/09 21:11:11;;;;;;;4.73;3.40;;;8.50;99.90;;;;;;4999338;28;21124;-76
2022/02/09 21:16:20;;;;;;;3.33;2.97;;;8.40;99.90;;;;;;5001341;28;20215;-74
2022/02/09 21:55:14;;;;;;;5.73;3.87;;;8.40;99.90;;;;;;5003993;28;20849;-76
2022/02/09 21:57:55;;;;;;;4.17;3.43;;;8.40;99.90;;;;;;5002348;28;20540;-79
2022/02/09 22:00:35;;;;;;;4.23;3.33;;;8.30;99.90;;;;;;5003647;28;20580;-78
2022/02/09 22:19:43;;;;;;;4.10;3.30;;;8.20;99.90;;;;;;5000440;28;20274;-77
2022/02/09 22:32:54;;;;;;;3.90;3.27;;;8.20;99.90;;;;;;5003078;28;20232;-77
2022/02/09 22:46:02;;;;;;;4.63;2.90;;;8.20;99.90;;;;;;5001088;28;20218;-76
2022/02/09 22:48:38;;;;;;;4.70;3.30;;;8.20;99.90;;;;;;4999777;28;20262;-77
2022/02/09 22:56:32;;;;;;;3.70;3.40;;;8.20;99.90;;;;;;5000414;28;20303;-78
2022/02/09 22:59:00;;;;;;;3.73;3.20;;;8.20;99.90;;;;;;5015913;28;20275;-75
2022/02/09 23:01:37;;;;;;;4.03;3.53;;;8.10;99.90;;;;;;5000774;28;20214;-81
2022/02/09 23:09:46;;;;;;;3.80;3.40;;;7.90;99.90;;;;;;4999170;28;20206;-76
